createdAt,value
2016-11-21T00:00:42.144Z,21.68
2016-11-21T00:01:42.419Z,21.58
2016-11-21T00:02:42.109Z,21.64
2016-11-21T00:03:42.479Z,21.67
2016-11-21T00:04:42.482Z,21.64
2016-11-21T00:05:42.441Z,21.65
2016-11-21T00:06:42.744Z,21.69
2016-11-21T00:07:42.769Z,21.61
2016-11-21T00:08:42.507Z,21.62
2016-11-21T00:09:42.775Z,21.64
2016-11-21T00:10:42.783Z,21.67
2016-11-21T00:11:42.526Z,21.64
2016-11-21T00:12:42.221Z,21.61
2016-11-21T00:13:42.194Z,21.65
2016-11-21T00:14:42.492Z,21.64
2016-11-21T00:15:42.810Z,21.64
2016-11-21T00:16:42.557Z,21.65
2016-11-21T00:17:42.551Z,21.64
2016-11-21T00:18:42.207Z,21.59
2016-11-21T00:19:43.912Z,21.61
2016-11-21T00:20:42.535Z,21.59
2016-11-21T00:21:42.535Z,21.61
2016-11-21T00:22:42.861Z,21.54
2016-11-21T00:23:42.602Z,21.58
2016-11-21T00:24:42.241Z,21.67
2016-11-21T00:25:42.878Z,21.62
2016-11-21T00:26:42.881Z,21.61
2016-11-21T00:27:42.658Z,21.56
2016-11-21T00:28:42.576Z,21.67
2016-11-21T00:29:42.895Z,21.61
2016-11-21T00:30:43.767Z,21.65
2016-11-21T00:31:42.646Z,21.61
2016-11-21T00:32:42.689Z,21.58
2016-11-21T00:33:42.614Z,21.53
2016-11-21T00:34:42.929Z,21.61
2016-11-21T00:35:42.984Z,21.53
2016-11-21T00:36:42.677Z,21.65
2016-11-21T00:37:43.001Z,21.64
2016-11-21T00:38:43.252Z,21.53
2016-11-21T00:39:42.645Z,21.54
2016-11-21T00:40:43.010Z,21.64
2016-11-21T00:41:43.560Z,21.54
2016-11-21T00:42:42.990Z,21.56
2016-11-21T00:43:43.036Z,21.62
2016-11-21T00:44:42.416Z,21.56
2016-11-21T00:45:43.003Z,21.53
2016-11-21T00:46:42.737Z,21.53
2016-11-21T00:47:42.701Z,21.59
2016-11-21T00:48:43.062Z,21.64
2016-11-21T00:49:42.392Z,21.52
2016-11-21T00:50:42.712Z,21.61
2016-11-21T00:51:42.408Z,21.59
2016-11-21T00:52:43.187Z,21.54
2016-11-21T00:53:42.466Z,21.62
2016-11-21T00:54:42.793Z,21.64
2016-11-21T00:55:42.742Z,21.58
2016-11-21T00:56:43.074Z,21.61
2016-11-21T00:57:43.069Z,21.61
2016-11-21T00:58:42.815Z,21.52
2016-11-21T00:59:42.775Z,21.56
2016-11-21T01:00:43.137Z,21.56
2016-11-21T01:01:42.779Z,21.59
2016-11-21T01:02:42.473Z,21.64
2016-11-21T01:03:43.293Z,21.62
2016-11-21T01:04:42.851Z,21.62
2016-11-21T01:05:42.809Z,21.54
2016-11-21T01:06:42.813Z,21.52
2016-11-21T01:07:42.866Z,21.68
2016-11-21T01:08:43.137Z,21.65
2016-11-21T01:09:42.567Z,21.61
2016-11-21T01:10:43.147Z,21.61
2016-11-21T01:11:43.156Z,21.69
2016-11-21T01:12:43.162Z,21.64
2016-11-21T01:13:42.853Z,21.67
2016-11-21T01:14:43.171Z,21.68
2016-11-21T01:15:42.863Z,21.61
2016-11-21T01:16:44.284Z,21.68
2016-11-21T01:17:43.243Z,21.64
2016-11-21T01:18:43.196Z,21.56
2016-11-21T01:19:42.946Z,21.62
2016-11-21T01:20:42.895Z,21.52
2016-11-21T01:21:43.218Z,21.59
2016-11-21T01:22:42.911Z,21.54
2016-11-21T01:23:43.323Z,21.53
2016-11-21T01:24:43.291Z,21.52
2016-11-21T01:25:42.928Z,21.62
2016-11-21T01:26:43.442Z,21.54
2016-11-21T01:27:44.154Z,21.56
2016-11-21T01:28:42.645Z,21.5
2016-11-21T01:29:43.315Z,21.58
2016-11-21T01:30:42.957Z,21.61
2016-11-21T01:31:43.299Z,21.59
2016-11-21T01:32:43.018Z,21.61
2016-11-21T01:33:43.348Z,21.68
2016-11-21T01:34:42.981Z,21.53
2016-11-21T01:35:43.352Z,21.64
2016-11-21T01:36:42.688Z,21.67
2016-11-21T01:37:43.001Z,21.56
2016-11-21T01:38:44.018Z,21.61
2016-11-21T01:39:43.428Z,21.64
2016-11-21T01:40:43.019Z,21.62
2016-11-21T01:41:43.042Z,21.62
2016-11-21T01:42:43.036Z,21.52
2016-11-21T01:43:43.038Z,21.54
2016-11-21T01:44:42.731Z,21.59
2016-11-21T01:45:43.363Z,21.52
2016-11-21T01:46:43.368Z,21.64
2016-11-21T01:47:43.063Z,21.58
2016-11-21T01:48:43.378Z,21.59
2016-11-21T01:49:43.891Z,21.54
2016-11-21T01:50:43.397Z,21.54
2016-11-21T01:51:43.086Z,21.68
2016-11-21T01:52:43.411Z,21.62
2016-11-21T01:53:43.411Z,21.5
2016-11-21T01:54:43.419Z,21.53
2016-11-21T01:55:43.112Z,21.56
2016-11-21T01:56:43.434Z,21.53
2016-11-21T01:57:43.187Z,21.52
2016-11-21T01:58:43.443Z,21.52
2016-11-21T01:59:43.238Z,21.54
2016-11-21T02:00:44.092Z,21.59
2016-11-21T02:01:43.151Z,21.52
2016-11-21T02:02:42.991Z,21.5
2016-11-21T02:03:43.473Z,21.64
2016-11-21T02:04:44.380Z,21.64
2016-11-21T02:05:42.860Z,21.68
2016-11-21T02:06:43.237Z,21.56
2016-11-21T02:07:43.600Z,21.56
2016-11-21T02:08:43.504Z,21.53
2016-11-21T02:09:43.306Z,21.53
2016-11-21T02:10:42.939Z,21.68
2016-11-21T02:11:43.924Z,21.59
2016-11-21T02:12:43.266Z,21.59
2016-11-21T02:13:43.273Z,21.54
2016-11-21T02:14:42.919Z,21.61
2016-11-21T02:15:43.771Z,21.58
2016-11-21T02:16:43.567Z,21.53
2016-11-21T02:17:42.934Z,21.53
2016-11-21T02:18:43.304Z,21.52
2016-11-21T02:19:42.946Z,21.53
2016-11-21T02:20:43.678Z,21.5
2016-11-21T02:21:43.633Z,21.53
2016-11-21T02:22:43.280Z,21.54
2016-11-21T02:23:43.598Z,21.5
2016-11-21T02:24:43.338Z,21.54
2016-11-21T02:25:42.983Z,21.47
2016-11-21T02:26:44.060Z,21.47
2016-11-21T02:27:43.312Z,21.5
2016-11-21T02:28:43.629Z,21.56
2016-11-21T02:29:43.324Z,21.58
2016-11-21T02:30:43.688Z,21.47
2016-11-21T02:31:43.018Z,21.54
2016-11-21T02:32:43.341Z,21.5
2016-11-21T02:33:43.398Z,21.52
2016-11-21T02:34:43.353Z,21.54
2016-11-21T02:35:44.959Z,21.54
2016-11-21T02:36:43.779Z,21.56
2016-11-21T02:37:43.822Z,21.56
2016-11-21T02:38:43.698Z,21.49
2016-11-21T02:39:43.433Z,21.5
2016-11-21T02:40:43.753Z,21.54
2016-11-21T02:41:43.713Z,21.52
2016-11-21T02:42:43.403Z,21.53
2016-11-21T02:43:43.720Z,21.56
2016-11-21T02:45:12.856Z,21.56
2016-11-21T02:45:43.580Z,21.47
2016-11-21T02:46:44.889Z,21.58
2016-11-21T02:47:43.432Z,21.54
2016-11-21T02:48:43.745Z,21.5
2016-11-21T02:49:43.197Z,21.5
2016-11-21T02:50:43.450Z,21.58
2016-11-21T02:51:43.205Z,21.5
2016-11-21T02:52:43.462Z,21.49
2016-11-21T02:53:43.467Z,21.54
2016-11-21T02:54:43.786Z,21.52
2016-11-21T02:55:43.487Z,21.56
2016-11-21T02:56:43.587Z,21.47
2016-11-21T02:57:44.606Z,21.53
2016-11-21T02:58:43.551Z,21.56
2016-11-21T02:59:43.192Z,21.54
2016-11-21T03:00:43.564Z,21.5
2016-11-21T03:01:44.733Z,21.53
2016-11-21T03:02:43.941Z,21.53
2016-11-21T03:03:43.893Z,21.43
2016-11-21T03:04:43.898Z,21.5
2016-11-21T03:05:43.867Z,21.5
2016-11-21T03:06:43.861Z,21.56
2016-11-21T03:07:43.558Z,21.5
2016-11-21T03:08:43.971Z,21.58
2016-11-21T03:09:43.881Z,21.58
2016-11-21T03:10:43.627Z,21.52
2016-11-21T03:11:43.893Z,21.58
2016-11-21T03:12:44.354Z,21.5
2016-11-21T03:13:43.592Z,21.56
2016-11-21T03:14:43.647Z,21.53
2016-11-21T03:15:43.290Z,21.54
2016-11-21T03:16:43.300Z,21.47
2016-11-21T03:17:43.716Z,21.59
2016-11-21T03:18:43.934Z,21.5
2016-11-21T03:19:43.938Z,21.5
2016-11-21T03:20:43.688Z,21.49
2016-11-21T03:21:45.145Z,21.54
2016-11-21T03:22:44.010Z,21.52
2016-11-21T03:23:43.965Z,21.53
2016-11-21T03:24:43.395Z,21.54
2016-11-21T03:25:43.986Z,21.5
2016-11-21T03:26:43.359Z,21.52
2016-11-21T03:27:43.421Z,21.56
2016-11-21T03:28:43.683Z,21.53
2016-11-21T03:29:43.375Z,21.54
2016-11-21T03:30:44.013Z,21.54
2016-11-21T03:31:44.013Z,21.53
2016-11-21T03:32:44.725Z,21.58
2016-11-21T03:33:43.711Z,21.52
2016-11-21T03:34:44.089Z,21.53
2016-11-21T03:35:43.775Z,21.52
2016-11-21T03:36:44.852Z,21.54
2016-11-21T03:37:44.049Z,21.54
2016-11-21T03:38:43.748Z,21.53
2016-11-21T03:39:43.750Z,21.52
2016-11-21T03:40:43.494Z,21.53
2016-11-21T03:41:44.079Z,21.53
2016-11-21T03:42:43.769Z,21.58
2016-11-21T03:43:44.065Z,21.58
2016-11-21T03:44:43.780Z,21.59
2016-11-21T03:45:43.838Z,21.47
2016-11-21T03:46:43.533Z,21.54
2016-11-21T03:47:44.454Z,21.56
2016-11-21T03:48:44.170Z,21.52
2016-11-21T03:49:43.864Z,21.52
2016-11-21T03:50:43.823Z,21.58
2016-11-21T03:51:43.877Z,21.54
2016-11-21T03:52:44.144Z,21.54
2016-11-21T03:53:44.149Z,21.52
2016-11-21T03:54:43.533Z,21.53
2016-11-21T03:55:44.212Z,21.5
2016-11-21T03:56:43.906Z,21.53
2016-11-21T03:57:44.230Z,21.53
2016-11-21T03:58:44.790Z,21.49
2016-11-21T03:59:43.872Z,21.54
2016-11-21T04:00:43.886Z,21.52
2016-11-21T04:01:43.889Z,21.53
2016-11-21T04:02:44.256Z,21.52
2016-11-21T04:03:44.209Z,21.35
2016-11-21T04:04:43.953Z,21.49
2016-11-21T04:05:44.274Z,21.54
2016-11-21T04:06:43.605Z,21.43
2016-11-21T04:07:45.679Z,21.5
2016-11-21T04:08:43.928Z,21.43
2016-11-21T04:09:44.335Z,21.44
2016-11-21T04:10:43.993Z,21.54
2016-11-21T04:11:43.946Z,21.54
2016-11-21T04:12:43.746Z,21.5
2016-11-21T04:13:44.323Z,21.46
2016-11-21T04:14:58.844Z,21.56
2016-11-21T04:15:43.660Z,21.5
2016-11-21T04:16:44.391Z,21.47
2016-11-21T04:17:43.983Z,21.53
2016-11-21T04:18:44.969Z,21.53
2016-11-21T04:19:43.995Z,21.53
2016-11-21T04:20:44.355Z,21.54
2016-11-21T04:21:44.012Z,21.47
2016-11-21T04:22:44.015Z,21.5
2016-11-21T04:23:44.073Z,21.54
2016-11-21T04:24:43.712Z,21.53
2016-11-21T04:25:44.451Z,21.53
2016-11-21T04:26:44.036Z,21.54
2016-11-21T04:27:44.360Z,21.53
2016-11-21T04:28:44.050Z,21.43
2016-11-21T04:29:45.373Z,21.53
2016-11-21T04:30:44.063Z,21.56
2016-11-21T04:31:44.069Z,21.56
2016-11-21T04:32:44.390Z,21.53
2016-11-21T04:33:45.561Z,21.43
2016-11-21T04:34:44.087Z,21.54
2016-11-21T04:35:44.096Z,21.49
2016-11-21T04:36:44.470Z,21.53
2016-11-21T04:37:43.842Z,21.49
2016-11-21T04:38:44.114Z,21.52
2016-11-21T04:39:44.117Z,21.52
2016-11-21T04:40:43.864Z,21.4
2016-11-21T04:41:44.132Z,21.46
2016-11-21T04:42:44.455Z,21.43
2016-11-21T04:43:44.460Z,21.52
2016-11-21T04:44:45.416Z,21.4
2016-11-21T04:45:44.157Z,21.43
2016-11-21T04:46:44.215Z,21.4
2016-11-21T04:47:43.855Z,21.47
2016-11-21T04:48:44.491Z,21.42
2016-11-21T04:49:44.181Z,21.42
2016-11-21T04:50:44.238Z,21.4
2016-11-21T04:51:44.555Z,21.44
2016-11-21T04:52:44.512Z,21.44
2016-11-21T04:53:46.193Z,21.37
2016-11-21T04:54:44.522Z,21.38
2016-11-21T04:55:44.965Z,21.49
2016-11-21T04:56:44.222Z,21.46
2016-11-21T04:57:44.540Z,21.4
2016-11-21T04:58:43.972Z,21.42
2016-11-21T04:59:43.929Z,21.44
2016-11-21T05:00:44.568Z,21.4
2016-11-21T05:01:43.941Z,21.53
2016-11-21T05:02:43.949Z,21.46
2016-11-21T05:03:44.268Z,21.4
2016-11-21T05:04:43.960Z,21.43
2016-11-21T05:05:44.338Z,21.46
2016-11-21T05:06:44.784Z,21.37
2016-11-21T05:07:44.607Z,21.44
2016-11-21T05:08:44.030Z,21.43
2016-11-21T05:09:44.302Z,21.4
2016-11-21T05:10:44.622Z,21.47
2016-11-21T05:11:44.316Z,21.42
2016-11-21T05:12:44.319Z,21.4
2016-11-21T05:13:44.643Z,21.43
2016-11-21T05:14:44.700Z,21.4
2016-11-21T05:15:45.338Z,21.42
2016-11-21T05:16:44.398Z,21.52
2016-11-21T05:17:44.498Z,21.49
2016-11-21T05:18:44.359Z,21.43
2016-11-21T05:19:45.339Z,21.5
2016-11-21T05:20:44.520Z,21.5
2016-11-21T05:21:44.062Z,21.47
2016-11-21T05:22:44.086Z,21.52
2016-11-21T05:23:44.702Z,21.54
2016-11-21T05:24:44.392Z,21.52
2016-11-21T05:25:44.456Z,21.54
2016-11-21T05:26:44.406Z,21.5
2016-11-21T05:27:44.410Z,21.52
2016-11-21T05:28:44.732Z,21.47
2016-11-21T05:29:44.735Z,21.43
2016-11-21T05:30:45.729Z,21.44
2016-11-21T05:31:44.746Z,21.5
2016-11-21T05:32:44.446Z,21.53
2016-11-21T05:33:44.447Z,21.53
2016-11-21T05:34:44.143Z,21.53
2016-11-21T05:35:44.462Z,21.54
2016-11-21T05:36:44.463Z,21.52
2016-11-21T05:37:44.786Z,21.49
2016-11-21T05:38:44.479Z,21.44
2016-11-21T05:39:44.538Z,21.53
2016-11-21T05:40:44.806Z,21.53
2016-11-21T05:41:45.451Z,21.46
2016-11-21T05:42:44.532Z,21.53
2016-11-21T05:43:44.560Z,21.54
2016-11-21T05:44:44.601Z,21.44
2016-11-21T05:45:44.841Z,21.54
2016-11-21T05:46:44.840Z,21.49
2016-11-21T05:47:44.851Z,21.47
2016-11-21T05:48:44.589Z,21.56
2016-11-21T05:49:44.543Z,21.47
2016-11-21T05:50:44.582Z,21.47
2016-11-21T05:51:44.611Z,21.49
2016-11-21T05:52:45.059Z,21.54
2016-11-21T05:53:44.255Z,21.49
2016-11-21T05:54:44.944Z,21.49
2016-11-21T05:55:44.581Z,21.54
2016-11-21T05:56:44.589Z,21.43
2016-11-21T05:57:44.644Z,21.53
2016-11-21T05:58:44.917Z,21.58
2016-11-21T05:59:44.918Z,21.5
2016-11-21T06:00:44.352Z,21.5
2016-11-21T06:01:45.617Z,21.5
2016-11-21T06:02:44.726Z,21.58
2016-11-21T06:03:44.634Z,21.56
2016-11-21T06:04:44.330Z,21.59
2016-11-21T06:05:46.105Z,21.52
2016-11-21T06:06:44.337Z,21.53
2016-11-21T06:07:44.708Z,21.54
2016-11-21T06:08:44.348Z,21.58
2016-11-21T06:09:44.985Z,21.47
2016-11-21T06:10:44.704Z,21.54
2016-11-21T06:11:44.997Z,21.54
2016-11-21T06:12:45.062Z,21.54
2016-11-21T06:13:44.750Z,21.52
2016-11-21T06:14:44.699Z,21.54
2016-11-21T06:15:44.394Z,21.5
2016-11-21T06:16:46.116Z,21.54
2016-11-21T06:17:44.767Z,21.54
2016-11-21T06:18:44.411Z,21.47
2016-11-21T06:19:45.046Z,21.52
2016-11-21T06:20:44.786Z,21.52
2016-11-21T06:21:44.742Z,21.52
2016-11-21T06:22:44.745Z,21.52
2016-11-21T06:23:45.118Z,21.54
2016-11-21T06:24:45.073Z,21.5
2016-11-21T06:25:45.079Z,21.53
2016-11-21T06:26:44.821Z,21.52
2016-11-21T06:27:45.778Z,21.54
2016-11-21T06:28:44.834Z,21.54
2016-11-21T06:29:45.153Z,21.53
2016-11-21T06:30:45.111Z,21.53
2016-11-21T06:31:44.805Z,21.52
2016-11-21T06:32:45.170Z,21.53
2016-11-21T06:33:44.555Z,21.49
2016-11-21T06:34:44.819Z,21.54
2016-11-21T06:35:44.827Z,21.54
2016-11-21T06:36:44.831Z,21.54
2016-11-21T06:37:45.153Z,21.54
2016-11-21T06:38:46.036Z,21.47
2016-11-21T06:39:44.851Z,21.52
2016-11-21T06:40:44.907Z,21.54
2016-11-21T06:41:45.177Z,21.53
2016-11-21T06:42:44.872Z,21.54
2016-11-21T06:43:45.190Z,21.56
2016-11-21T06:44:44.935Z,21.52
2016-11-21T06:45:44.891Z,21.56
2016-11-21T06:46:45.259Z,21.5
2016-11-21T06:47:44.950Z,21.52
2016-11-21T06:48:44.908Z,21.49
2016-11-21T06:49:45.977Z,21.59
2016-11-21T06:50:44.969Z,21.52
2016-11-21T06:51:44.935Z,21.53
2016-11-21T06:52:44.617Z,21.5
2016-11-21T06:53:44.676Z,21.53
2016-11-21T06:54:45.256Z,21.52
2016-11-21T06:55:44.950Z,21.52
2016-11-21T06:56:44.956Z,21.54
2016-11-21T06:57:45.263Z,21.5
2016-11-21T06:58:44.707Z,21.5
2016-11-21T06:59:44.660Z,21.49
2016-11-21T07:00:45.736Z,21.5
2016-11-21T07:01:44.675Z,21.47
2016-11-21T07:02:44.995Z,21.54
2016-11-21T07:03:45.051Z,21.5
2016-11-21T07:04:44.743Z,21.49
2016-11-21T07:05:45.321Z,21.54
2016-11-21T07:06:45.329Z,21.49
2016-11-21T07:07:44.710Z,21.59
2016-11-21T07:08:44.716Z,21.53
2016-11-21T07:09:44.720Z,21.52
2016-11-21T07:10:45.353Z,21.54
2016-11-21T07:11:45.500Z,21.5
2016-11-21T07:12:45.367Z,21.54
2016-11-21T07:13:45.059Z,21.52
2016-11-21T07:14:45.379Z,21.52
2016-11-21T07:15:45.384Z,21.52
2016-11-21T07:16:45.396Z,21.56
2016-11-21T07:17:45.135Z,21.58
2016-11-21T07:18:45.142Z,21.5
2016-11-21T07:19:44.784Z,21.52
2016-11-21T07:20:45.413Z,21.5
2016-11-21T07:21:44.797Z,21.52
2016-11-21T07:22:45.518Z,21.54
2016-11-21T07:23:45.121Z,21.54
2016-11-21T07:24:44.919Z,21.59
2016-11-21T07:25:45.499Z,21.53
2016-11-21T07:26:45.138Z,21.58
2016-11-21T07:27:45.555Z,21.56
2016-11-21T07:28:45.465Z,21.65
2016-11-21T07:29:45.510Z,21.65
2016-11-21T07:30:45.217Z,21.72
2016-11-21T07:31:45.528Z,21.94
2016-11-21T07:32:45.177Z,22.02
2016-11-21T07:33:45.069Z,22.12
2016-11-21T07:34:45.234Z,22.31
2016-11-21T07:35:44.881Z,22.45
2016-11-21T07:36:45.250Z,22.72
2016-11-21T07:37:45.620Z,22.9
2016-11-21T07:38:45.213Z,22.85
2016-11-21T07:39:45.218Z,23.02
2016-11-21T07:40:45.586Z,23.22
2016-11-21T07:41:44.969Z,23.27
2016-11-21T07:42:44.924Z,23.4
2016-11-21T07:43:45.339Z,23.54
2016-11-21T07:44:45.248Z,23.63
2016-11-21T07:45:45.303Z,23.69
2016-11-21T07:46:46.799Z,23.83
2016-11-21T07:47:45.683Z,23.95
2016-11-21T07:48:45.205Z,24
2016-11-21T07:49:44.974Z,24.03
2016-11-21T07:50:45.333Z,24.05
2016-11-21T07:51:45.345Z,24.22
2016-11-21T07:52:45.297Z,24.22
2016-11-21T07:53:45.615Z,24.25
2016-11-21T07:54:44.995Z,24.34
2016-11-21T07:55:45.317Z,24.43
2016-11-21T07:56:45.385Z,24.45
2016-11-21T07:57:46.165Z,24.55
2016-11-21T07:58:45.387Z,24.58
2016-11-21T07:59:45.391Z,24.57
2016-11-21T08:00:45.661Z,24.62
2016-11-21T08:01:45.352Z,24.53
2016-11-21T08:02:45.720Z,24.69
2016-11-21T08:03:45.366Z,24.62
2016-11-21T08:04:45.421Z,24.62
2016-11-21T08:05:45.378Z,24.68
2016-11-21T08:06:45.120Z,24.73
2016-11-21T08:07:45.176Z,24.71
2016-11-21T08:08:46.284Z,24.69
2016-11-21T08:09:45.795Z,24.78
2016-11-21T08:10:45.459Z,24.68
2016-11-21T08:11:45.414Z,24.78
2016-11-21T08:12:45.157Z,24.78
2016-11-21T08:13:45.427Z,24.73
2016-11-21T08:14:45.745Z,24.71
2016-11-21T08:15:45.128Z,24.77
2016-11-21T08:16:45.137Z,24.71
2016-11-21T08:17:45.219Z,24.8
2016-11-21T08:18:45.826Z,24.76
2016-11-21T08:19:46.119Z,24.73
2016-11-21T08:20:45.471Z,24.71
2016-11-21T08:21:45.166Z,24.73
2016-11-21T08:22:45.801Z,24.73
2016-11-21T08:23:46.398Z,24.8
2016-11-21T08:24:45.199Z,24.83
2016-11-21T08:25:45.557Z,24.78
2016-11-21T08:26:45.834Z,24.88
2016-11-21T08:27:45.562Z,24.88
2016-11-21T08:28:45.576Z,24.87
2016-11-21T08:29:45.583Z,24.83
2016-11-21T08:30:45.406Z,24.83
2016-11-21T08:31:45.547Z,24.73
2016-11-21T08:32:47.740Z,24.76
2016-11-21T08:33:45.400Z,24.71
2016-11-21T08:34:46.251Z,24.76
2016-11-21T08:35:45.933Z,24.83
2016-11-21T08:36:45.955Z,24.73
2016-11-21T08:37:45.584Z,24.77
2016-11-21T08:38:45.902Z,24.83
2016-11-21T08:39:45.908Z,24.76
2016-11-21T08:40:45.919Z,24.78
2016-11-21T08:41:46.225Z,24.85
2016-11-21T08:42:45.353Z,24.67
2016-11-21T08:43:45.359Z,24.73
2016-11-21T08:44:48.047Z,24.8
2016-11-21T08:45:46.288Z,24.96
2016-11-21T08:46:45.972Z,24.84
2016-11-21T08:47:45.965Z,24.87
2016-11-21T08:48:45.709Z,24.91
2016-11-21T08:49:45.660Z,24.91
2016-11-21T08:50:45.671Z,24.9
2016-11-21T08:51:45.687Z,24.91
2016-11-21T08:52:45.457Z,24.88
2016-11-21T08:53:45.743Z,24.93
2016-11-21T08:54:47.488Z,24.84
2016-11-21T08:55:45.698Z,24.83
2016-11-21T08:56:46.218Z,24.84
2016-11-21T08:57:45.402Z,24.84
2016-11-21T08:58:45.720Z,24.98
2016-11-21T08:59:45.729Z,24.98
2016-11-21T09:00:46.149Z,24.98
2016-11-21T09:01:45.477Z,25
2016-11-21T09:02:45.486Z,24.96
2016-11-21T09:03:45.759Z,24.91
2016-11-21T09:04:46.126Z,24.96
2016-11-21T09:05:45.453Z,25
2016-11-21T09:06:46.088Z,24.87
2016-11-21T09:07:46.102Z,25.02
2016-11-21T09:08:45.788Z,24.95
2016-11-21T09:09:45.895Z,24.9
2016-11-21T09:10:46.113Z,24.88
2016-11-21T09:11:45.811Z,24.91
2016-11-21T09:12:45.816Z,24.95
2016-11-21T09:13:46.182Z,24.98
2016-11-21T09:14:46.190Z,25.05
2016-11-21T09:15:45.847Z,24.98
2016-11-21T09:16:46.343Z,25
2016-11-21T09:17:45.846Z,25
2016-11-21T09:18:45.906Z,24.95
2016-11-21T09:19:46.176Z,24.84
2016-11-21T09:20:46.867Z,24.96
2016-11-21T09:21:46.197Z,25
2016-11-21T09:22:45.910Z,24.96
2016-11-21T09:23:45.938Z,24.96
2016-11-21T09:24:46.258Z,25.02
2016-11-21T09:25:45.971Z,25
2016-11-21T09:26:45.909Z,24.95
2016-11-21T09:27:46.279Z,24.96
2016-11-21T09:28:45.972Z,24.98
2016-11-21T09:29:45.614Z,24.99
2016-11-21T09:30:45.985Z,24.96
2016-11-21T09:31:46.806Z,24.95
2016-11-21T09:32:45.949Z,24.96
2016-11-21T09:33:46.008Z,25.08
2016-11-21T09:34:46.014Z,25.05
2016-11-21T09:35:46.281Z,24.99
2016-11-21T09:36:45.979Z,25.05
2016-11-21T09:37:45.984Z,24.98
2016-11-21T09:38:46.304Z,24.99
2016-11-21T09:39:46.360Z,24.93
2016-11-21T09:40:47.641Z,24.91
2016-11-21T09:41:46.323Z,25.02
2016-11-21T09:42:46.213Z,25.05
2016-11-21T09:43:46.384Z,25.02
2016-11-21T09:44:46.080Z,25.06
2016-11-21T09:45:46.346Z,25.13
2016-11-21T09:46:46.070Z,25.14
2016-11-21T09:47:45.786Z,25.05
2016-11-21T09:48:46.618Z,25.06
2016-11-21T09:49:46.067Z,25.14
2016-11-21T09:50:46.417Z,25.23
2016-11-21T09:51:47.239Z,25.2
2016-11-21T09:52:46.445Z,25.15
2016-11-21T09:53:46.539Z,25.13
2016-11-21T09:54:46.095Z,25.13
2016-11-21T09:55:46.103Z,25.15
2016-11-21T09:56:46.162Z,25.08
2016-11-21T09:57:46.166Z,25.08
2016-11-21T09:58:46.496Z,25.08
2016-11-21T09:59:46.129Z,25.13
2016-11-21T10:00:46.502Z,25.03
2016-11-21T10:01:46.455Z,25.09
2016-11-21T10:02:47.575Z,25.06
2016-11-21T10:03:46.156Z,25.08
2016-11-21T10:04:46.303Z,25.1
2016-11-21T10:05:46.174Z,25.1
2016-11-21T10:06:45.913Z,25.08
2016-11-21T10:07:46.545Z,25.15
2016-11-21T10:08:46.191Z,25.09
2016-11-21T10:09:45.884Z,25.18
2016-11-21T10:10:46.617Z,25.09
2016-11-21T10:11:45.903Z,25.08
2016-11-21T10:12:45.954Z,25.09
2016-11-21T10:13:46.222Z,25.17
2016-11-21T10:14:45.917Z,25.27
2016-11-21T10:15:46.388Z,25.1
2016-11-21T10:16:45.947Z,25.06
2016-11-21T10:17:47.736Z,25.05
2016-11-21T10:18:46.575Z,25.21
2016-11-21T10:19:46.000Z,25.24
2016-11-21T10:20:45.960Z,25.24
2016-11-21T10:21:45.965Z,25.21
2016-11-21T10:22:46.285Z,25.3
2016-11-21T10:23:46.601Z,25.18
2016-11-21T10:24:46.660Z,25.21
2016-11-21T10:25:46.407Z,25.24
2016-11-21T10:26:46.723Z,25.18
2016-11-21T10:27:46.318Z,25.2
2016-11-21T10:28:47.164Z,25.25
2016-11-21T10:29:46.643Z,25.3
2016-11-21T10:30:46.437Z,25.33
2016-11-21T10:31:46.992Z,25.24
2016-11-21T10:32:46.089Z,25.33
2016-11-21T10:33:46.346Z,25.25
2016-11-21T10:34:46.056Z,25.33
2016-11-21T10:35:46.421Z,25.35
2016-11-21T10:36:46.755Z,25.3
2016-11-21T10:37:46.384Z,25.35
2016-11-21T10:38:46.440Z,25.27
2016-11-21T10:39:47.336Z,25.21
2016-11-21T10:40:46.408Z,25.28
2016-11-21T10:41:46.414Z,25.21
2016-11-21T10:42:46.424Z,25.25
2016-11-21T10:43:46.526Z,25.25
2016-11-21T10:44:46.794Z,25.21
2016-11-21T10:45:46.754Z,25.3
2016-11-21T10:46:46.132Z,25.25
2016-11-21T10:47:46.455Z,25.24
2016-11-21T10:48:47.581Z,25.27
2016-11-21T10:49:46.833Z,25.18
2016-11-21T10:50:46.976Z,25.24
2016-11-21T10:51:46.532Z,25.24
2016-11-21T10:52:47.664Z,25.23
2016-11-21T10:53:46.806Z,25.39
2016-11-21T10:54:46.884Z,25.36
2016-11-21T10:55:46.507Z,25.25
2016-11-21T10:56:46.249Z,25.32
2016-11-21T10:57:46.573Z,25.27
2016-11-21T10:58:46.895Z,25.32
2016-11-21T10:59:46.221Z,25.42
2016-11-21T11:00:46.228Z,25.21
2016-11-21T11:01:46.861Z,25.23
2016-11-21T11:02:46.873Z,25.39
2016-11-21T11:03:47.877Z,25.18
2016-11-21T11:04:46.349Z,25.2
2016-11-21T11:05:46.890Z,25.23
2016-11-21T11:06:46.693Z,25.3
2016-11-21T11:07:46.903Z,25.23
2016-11-21T11:08:46.917Z,25.25
2016-11-21T11:09:46.603Z,25.21
2016-11-21T11:10:46.661Z,25.23
2016-11-21T11:11:46.668Z,25.27
2016-11-21T11:12:46.359Z,25.25
2016-11-21T11:13:46.320Z,25.28
2016-11-21T11:14:47.340Z,25.24
2016-11-21T11:15:46.647Z,25.4
2016-11-21T11:16:47.063Z,25.25
2016-11-21T11:17:46.344Z,25.23
2016-11-21T11:18:46.979Z,25.25
2016-11-21T11:19:46.720Z,25.4
2016-11-21T11:20:46.678Z,25.38
2016-11-21T11:21:46.681Z,25.33
2016-11-21T11:22:47.004Z,25.47
2016-11-21T11:23:46.383Z,25.5
2016-11-21T11:24:46.440Z,25.38
2016-11-21T11:25:47.265Z,25.33
2016-11-21T11:26:47.029Z,25.38
2016-11-21T11:27:46.415Z,25.42
2016-11-21T11:28:46.781Z,25.36
2016-11-21T11:29:46.797Z,25.45
2016-11-21T11:30:46.753Z,25.39
2016-11-21T11:31:46.752Z,25.39
2016-11-21T11:32:46.809Z,25.42
2016-11-21T11:33:47.086Z,25.33
2016-11-21T11:34:47.826Z,25.42
2016-11-21T11:35:47.097Z,25.45
2016-11-21T11:36:46.721Z,25.46
2016-11-21T11:37:46.796Z,25.38
2016-11-21T11:38:46.487Z,25.35
2016-11-21T11:39:46.807Z,25.38
2016-11-21T11:40:47.129Z,25.38
2016-11-21T11:41:46.869Z,25.36
2016-11-21T11:42:47.141Z,25.43
2016-11-21T11:43:46.521Z,25.45
2016-11-21T11:44:47.158Z,25.5
2016-11-21T11:45:46.537Z,25.39
2016-11-21T11:46:46.903Z,25.42
2016-11-21T11:47:46.962Z,25.51
2016-11-21T11:48:47.283Z,25.52
2016-11-21T11:49:48.327Z,25.45
2016-11-21T11:50:46.881Z,25.46
2016-11-21T11:51:46.890Z,25.47
2016-11-21T11:52:46.895Z,25.5
2016-11-21T11:53:46.906Z,25.45
2016-11-21T11:54:47.018Z,25.47
2016-11-21T11:55:46.651Z,25.42
2016-11-21T11:56:46.613Z,25.42
2016-11-21T11:57:47.249Z,25.51
2016-11-21T11:58:46.992Z,25.42
2016-11-21T11:59:46.945Z,25.5
2016-11-21T12:00:47.814Z,25.5
2016-11-21T12:01:46.959Z,25.45
2016-11-21T12:02:47.279Z,25.43
2016-11-21T12:03:47.022Z,25.43
2016-11-21T12:04:47.394Z,25.55
2016-11-21T12:05:47.300Z,25.5
2016-11-21T12:06:47.354Z,25.46
2016-11-21T12:07:46.689Z,25.47
2016-11-21T12:08:47.380Z,25.43
2016-11-21T12:09:46.704Z,25.46
2016-11-21T12:10:47.022Z,25.47
2016-11-21T12:11:47.666Z,25.47
2016-11-21T12:12:47.035Z,25.5
2016-11-21T12:13:47.042Z,25.47
2016-11-21T12:14:47.419Z,25.45
2016-11-21T12:15:47.056Z,25.46
2016-11-21T12:16:46.755Z,25.36
2016-11-21T12:17:47.172Z,25.36
2016-11-21T12:18:47.129Z,25.43
2016-11-21T12:19:46.819Z,25.36
2016-11-21T12:20:47.878Z,25.46
2016-11-21T12:21:47.206Z,25.39
2016-11-21T12:22:47.041Z,25.39
2016-11-21T12:23:47.423Z,25.38
2016-11-21T12:24:48.095Z,25.43
2016-11-21T12:25:46.863Z,25.46
2016-11-21T12:26:47.445Z,25.38
2016-11-21T12:27:46.828Z,25.36
2016-11-21T12:28:47.246Z,25.35
2016-11-21T12:29:47.464Z,25.4
2016-11-21T12:30:47.484Z,25.45
2016-11-21T12:31:47.483Z,25.43
2016-11-21T12:32:47.540Z,25.46
2016-11-21T12:33:47.550Z,25.51
2016-11-21T12:34:47.202Z,25.47
2016-11-21T12:35:48.333Z,25.54
2016-11-21T12:36:47.200Z,25.51
2016-11-21T12:37:47.207Z,25.39
2016-11-21T12:38:47.537Z,25.28
2016-11-21T12:39:47.273Z,25.27
2016-11-21T12:40:47.592Z,25.4
2016-11-21T12:41:47.236Z,25.36
2016-11-21T12:42:47.244Z,25.33
2016-11-21T12:43:47.298Z,25.33
2016-11-21T12:45:17.903Z,25.46
2016-11-21T12:45:47.676Z,25.52
2016-11-21T12:46:47.975Z,25.47
2016-11-21T12:47:47.278Z,25.4
2016-11-21T12:48:47.283Z,25.33
2016-11-21T12:49:47.294Z,25.36
2016-11-21T12:50:46.993Z,25.38
2016-11-21T12:51:47.045Z,25.43
2016-11-21T12:52:47.314Z,25.46
2016-11-21T12:53:47.368Z,25.38
2016-11-21T12:54:47.011Z,25.36
2016-11-21T12:55:48.438Z,25.38
2016-11-21T12:56:47.753Z,25.36